Time;durP1;ratioP1;P1;durP2;ratioP2;P2;SDS_P1;SDS_P2;PMS_P1;PMS_P2;Temp;Humidity;BMP_temperature;BMP_pressure;BME280_temperature;BME280_humidity;BME280_pressure;Samples;Min_cycle;Max_cycle;Signal;HPM_P1;HPM_P2
2021/04/02 00:01:40;;;;;;;0.47;0.47;;;;;;;;;;5032101;28;20189;-77
2021/04/02 00:04:06;;;;;;;0.30;0.30;;;;;;;;;;5049832;28;20188;-76
2021/04/02 00:06:32;;;;;;;0.05;0.05;;;;;;;;;;5031947;28;20196;-77
2021/04/02 00:08:59;;;;;;;3.72;0.73;;;;;;;;;;5049579;28;20188;-77
2021/04/02 00:11:26;;;;;;;0.93;0.52;;;;;;;;;;5049143;28;20192;-78
2021/04/02 00:13:52;;;;;;;0.63;0.52;;;;;;;;;;5049581;28;20169;-76
2021/04/02 00:16:19;;;;;;;1.05;0.68;;;;;;;;;;5049564;28;20272;-78
2021/04/02 00:18:46;;;;;;;0.50;0.50;;;;;;;;;;5049560;28;20157;-78
2021/04/02 00:21:13;;;;;;;0.73;0.38;;;;;;;;;;5049532;28;20169;-78
2021/04/02 00:23:40;;;;;;;0.10;0.10;;;;;;;;;;5049403;28;20166;-77
2021/04/02 00:26:07;;;;;;;0.93;0.85;;;;;;;;;;5049406;28;20166;-78
2021/04/02 00:28:33;;;;;;;0.00;0.00;;;;;;;;;;5031772;28;20196;-77
2021/04/02 00:31:00;;;;;;;0.17;0.17;;;;;;;;;;5031666;28;20201;-76
2021/04/02 00:33:28;;;;;;;0.00;0.00;;;;;;;;;;5031698;28;20173;-77
2021/04/02 00:35:54;;;;;;;0.08;0.08;;;;;;;;;;5049253;28;20161;-76
2021/04/02 00:38:21;;;;;;;0.10;0.05;;;;;;;;;;5049313;28;20164;-77
2021/04/02 00:40:50;;;;;;;0.10;0.10;;;;;;;;;;5031587;28;20196;-77
2021/04/02 00:43:18;;;;;;;1.60;0.75;;;;;;;;;;5049276;28;20196;-78
2021/04/02 00:45:44;;;;;;;0.45;0.38;;;;;;;;;;5049143;28;20195;-77
2021/04/02 00:48:10;;;;;;;0.17;0.17;;;;;;;;;;5049087;28;20197;-78
2021/04/02 00:50:39;;;;;;;0.40;0.28;;;;;;;;;;5031229;28;20233;-76
2021/04/02 00:53:06;;;;;;;5.88;0.90;;;;;;;;;;5034220;28;20189;-77
2021/04/02 00:55:32;;;;;;;0.55;0.40;;;;;;;;;;5049181;28;20165;-77
2021/04/02 00:57:59;;;;;;;0.32;0.32;;;;;;;;;;5049010;28;20189;-77
2021/04/02 01:00:26;;;;;;;0.00;0.00;;;;;;;;;;5049080;28;20173;-77
2021/04/02 01:02:54;;;;;;;0.00;0.00;;;;;;;;;;5047876;28;20165;-77
2021/04/02 01:05:22;;;;;;;0.57;0.57;;;;;;;;;;5047823;28;20169;-76
2021/04/02 01:07:55;;;;;;;0.10;0.10;;;;;;;;;;5047649;28;20223;-77
2021/04/02 01:10:22;;;;;;;0.75;0.30;;;;;;;;;;5047737;28;20223;-77
2021/04/02 01:12:50;;;;;;;0.17;0.17;;;;;;;;;;5048944;28;20164;-76
2021/04/02 01:15:24;;;;;;;0.00;0.00;;;;;;;;;;5047679;28;20170;-77
2021/04/02 01:17:52;;;;;;;0.13;0.13;;;;;;;;;;5048827;28;20252;-77
2021/04/02 01:20:21;;;;;;;0.10;0.10;;;;;;;;;;5047576;28;20173;-77
2021/04/02 01:22:48;;;;;;;10.18;1.23;;;;;;;;;;5047748;28;20176;-77
2021/04/02 01:25:14;;;;;;;0.10;0.10;;;;;;;;;;5069704;28;20188;-77
2021/04/02 01:27:49;;;;;;;0.80;0.63;;;;;;;;;;5072676;28;20196;-76
2021/04/02 01:30:16;;;;;;;0.52;0.52;;;;;;;;;;5054711;28;20290;-77
2021/04/02 01:32:44;;;;;;;1.83;1.20;;;;;;;;;;5054797;28;20168;-77
2021/04/02 01:35:13;;;;;;;0.10;0.10;;;;;;;;;;5054682;28;20165;-78
2021/04/02 01:37:42;;;;;;;0.08;0.08;;;;;;;;;;5072523;28;20195;-78
2021/04/02 01:40:10;;;;;;;1.50;1.40;;;;;;;;;;5054657;28;20188;-77
2021/04/02 01:42:38;;;;;;;0.75;0.35;;;;;;;;;;5054711;28;20552;-77
2021/04/02 01:45:05;;;;;;;0.30;0.30;;;;;;;;;;5072568;28;20172;-77
2021/04/02 01:47:31;;;;;;;0.20;0.20;;;;;;;;;;5072304;28;20195;-78
2021/04/02 01:49:58;;;;;;;0.17;0.17;;;;;;;;;;5054196;28;20232;-77
2021/04/02 01:52:26;;;;;;;0.50;0.50;;;;;;;;;;5054346;28;20169;-78
2021/04/02 01:54:53;;;;;;;0.30;0.30;;;;;;;;;;5054329;28;20168;-79
2021/04/02 01:57:19;;;;;;;0.88;0.88;;;;;;;;;;5054439;28;20207;-76
2021/04/02 01:59:46;;;;;;;0.10;0.10;;;;;;;;;;5072186;28;20157;-77
2021/04/02 02:02:13;;;;;;;0.17;0.17;;;;;;;;;;5072174;28;20172;-78
2021/04/02 02:04:39;;;;;;;0.10;0.10;;;;;;;;;;5054231;28;20176;-77
2021/04/02 02:07:06;;;;;;;0.35;0.28;;;;;;;;;;5072025;28;20200;-77
2021/04/02 02:09:36;;;;;;;0.32;0.32;;;;;;;;;;5071925;28;20235;-78
2021/04/02 02:12:04;;;;;;;0.28;0.28;;;;;;;;;;5072051;28;20640;-78
2021/04/02 02:14:32;;;;;;;1.23;0.90;;;;;;;;;;5071934;28;20167;-78
2021/04/02 02:17:00;;;;;;;0.57;0.57;;;;;;;;;;5071773;28;20196;-78
2021/04/02 02:19:28;;;;;;;0.90;0.30;;;;;;;;;;5053902;28;20177;-77
2021/04/02 02:21:56;;;;;;;0.00;0.00;;;;;;;;;;5071822;28;20163;-78
2021/04/02 02:24:24;;;;;;;0.80;0.80;;;;;;;;;;5071640;28;20169;-78
2021/04/02 02:26:50;;;;;;;0.65;0.47;;;;;;;;;;5053606;28;20249;-78
2021/04/02 02:29:16;;;;;;;2.17;1.17;;;;;;;;;;5071526;28;20196;-78
2021/04/02 02:31:43;;;;;;;3.65;2.10;;;;;;;;;;5071601;28;20161;-77
2021/04/02 02:34:09;;;;;;;0.08;0.08;;;;;;;;;;5070819;28;20165;-78
2021/04/02 02:36:36;;;;;;;0.80;0.80;;;;;;;;;;5071360;28;20252;-77
2021/04/02 02:39:06;;;;;;;0.10;0.10;;;;;;;;;;5071392;28;20164;-76
2021/04/02 02:41:33;;;;;;;0.10;0.10;;;;;;;;;;5053427;28;20168;-78
2021/04/02 02:43:59;;;;;;;1.38;0.47;;;;;;;;;;5070966;28;20172;-78
2021/04/02 02:46:25;;;;;;;0.35;0.25;;;;;;;;;;5071105;28;20189;-77
2021/04/02 02:48:53;;;;;;;0.50;0.50;;;;;;;;;;5070719;28;20165;-75
2021/04/02 02:51:20;;;;;;;0.10;0.10;;;;;;;;;;5052966;28;20211;-77
2021/04/02 02:53:47;;;;;;;0.43;0.35;;;;;;;;;;5070940;28;20168;-79
2021/04/02 02:56:15;;;;;;;1.30;0.68;;;;;;;;;;5052487;28;20199;-78
2021/04/02 02:58:42;;;;;;;0.20;0.20;;;;;;;;;;5070402;28;20216;-79
2021/04/02 03:01:09;;;;;;;0.25;0.13;;;;;;;;;;5052723;28;20194;-77
2021/04/02 03:03:35;;;;;;;0.52;0.52;;;;;;;;;;5070647;28;20171;-77
2021/04/02 03:06:02;;;;;;;0.00;0.00;;;;;;;;;;5052818;28;20188;-78
2021/04/02 03:08:31;;;;;;;1.55;0.55;;;;;;;;;;5052546;28;20183;-78
2021/04/02 03:10:59;;;;;;;0.95;0.40;;;;;;;;;;5052313;28;20208;-78
2021/04/02 03:13:26;;;;;;;0.75;0.75;;;;;;;;;;5052484;28;20184;-77
2021/04/02 03:15:56;;;;;;;1.08;0.98;;;;;;;;;;5052329;28;20172;-78
2021/04/02 03:18:22;;;;;;;0.63;0.55;;;;;;;;;;5070213;28;20161;-78
2021/04/02 03:20:49;;;;;;;0.08;0.08;;;;;;;;;;5070186;28;20203;-77
2021/04/02 03:23:16;;;;;;;0.75;0.75;;;;;;;;;;5070268;28;20161;-79
2021/04/02 03:25:44;;;;;;;0.10;0.10;;;;;;;;;;5070242;28;20161;-79
2021/04/02 03:28:11;;;;;;;6.18;1.27;;;;;;;;;;5052159;28;20207;-77
2021/04/02 03:30:38;;;;;;;0.95;0.95;;;;;;;;;;5070170;28;20220;-78
2021/04/02 03:33:07;;;;;;;1.60;0.60;;;;;;;;;;5069958;28;20153;-77
2021/04/02 03:35:35;;;;;;;0.00;0.00;;;;;;;;;;5070063;28;20173;-77
2021/04/02 03:38:03;;;;;;;1.10;1.08;;;;;;;;;;5069880;28;20192;-78
2021/04/02 03:40:30;;;;;;;4.13;0.80;;;;;;;;;;5069807;28;20169;-78
2021/04/02 03:42:57;;;;;;;0.98;0.98;;;;;;;;;;5069841;28;20172;-77
2021/04/02 03:45:24;;;;;;;4.63;1.23;;;;;;;;;;5069414;28;20161;-77
2021/04/02 03:47:53;;;;;;;1.92;0.17;;;;;;;;;;5051329;28;20212;-79
2021/04/02 03:50:20;;;;;;;0.45;0.45;;;;;;;;;;5051288;28;20236;-78
2021/04/02 03:52:59;;;;;;;0.10;0.10;;;;;;;;;;5051817;28;20176;-78
2021/04/02 03:55:26;;;;;;;0.10;0.10;;;;;;;;;;5069534;28;20169;-78
2021/04/02 03:57:53;;;;;;;0.77;0.77;;;;;;;;;;5051179;28;20201;-78
2021/04/02 04:00:27;;;;;;;0.10;0.10;;;;;;;;;;5051483;28;20230;-78
2021/04/02 04:02:53;;;;;;;0.82;0.82;;;;;;;;;;5051604;28;20180;-79
2021/04/02 04:05:20;;;;;;;0.10;0.10;;;;;;;;;;5069398;28;20236;-79
2021/04/02 04:07:50;;;;;;;0.30;0.25;;;;;;;;;;5069255;28;20196;-77
2021/04/02 04:10:18;;;;;;;0.68;0.68;;;;;;;;;;5051367;28;20200;-79
2021/04/02 04:12:47;;;;;;;0.63;0.30;;;;;;;;;;5051347;28;20200;-79
2021/04/02 04:15:15;;;;;;;1.25;1.13;;;;;;;;;;5051195;28;20172;-78
2021/04/02 04:17:42;;;;;;;1.52;1.05;;;;;;;;;;5069052;28;20216;-79
2021/04/02 04:20:12;;;;;;;0.20;0.20;;;;;;;;;;5051317;28;20176;-78
2021/04/02 04:22:40;;;;;;;0.85;0.45;;;;;;;;;;5069090;28;20169;-77
2021/04/02 04:25:07;;;;;;;0.98;0.98;;;;;;;;;;5051349;28;20180;-79
2021/04/02 04:27:35;;;;;;;0.88;0.82;;;;;;;;;;5051247;28;20667;-79
2021/04/02 04:30:02;;;;;;;0.73;0.45;;;;;;;;;;5050975;28;20207;-77
2021/04/02 04:32:29;;;;;;;0.25;0.25;;;;;;;;;;5051179;28;20252;-78
2021/04/02 04:34:56;;;;;;;0.13;0.13;;;;;;;;;;5069042;28;20168;-78
2021/04/02 04:37:23;;;;;;;0.05;0.05;;;;;;;;;;5068769;28;20657;-78
2021/04/02 04:39:49;;;;;;;0.10;0.10;;;;;;;;;;5068917;28;20172;-78
2021/04/02 04:42:17;;;;;;;0.30;0.30;;;;;;;;;;5050868;28;20172;-78
2021/04/02 04:44:45;;;;;;;0.57;0.57;;;;;;;;;;5051138;28;20206;-79
2021/04/02 04:47:12;;;;;;;0.15;0.15;;;;;;;;;;5068936;28;20200;-78
2021/04/02 04:49:38;;;;;;;0.10;0.10;;;;;;;;;;5050678;28;20228;-78
2021/04/02 04:52:05;;;;;;;0.15;0.15;;;;;;;;;;5050965;28;20184;-78
2021/04/02 04:54:32;;;;;;;0.20;0.20;;;;;;;;;;5068944;28;20259;-78
2021/04/02 04:56:59;;;;;;;0.00;0.00;;;;;;;;;;5051193;28;20204;-78
2021/04/02 04:59:27;;;;;;;0.35;0.35;;;;;;;;;;5072793;28;20228;-78
2021/04/02 05:01:55;;;;;;;2.63;1.00;;;;;;;;;;5055017;28;20165;-79
2021/04/02 05:04:23;;;;;;;1.17;0.43;;;;;;;;;;5072934;28;20220;-77
2021/04/02 05:06:51;;;;;;;1.30;1.10;;;;;;;;;;5072880;28;20203;-78
2021/04/02 05:09:18;;;;;;;3.20;1.95;;;;;;;;;;5072827;28;20160;-78
2021/04/02 05:11:45;;;;;;;0.35;0.35;;;;;;;;;;5072855;28;20164;-78
2021/04/02 05:14:13;;;;;;;0.40;0.40;;;;;;;;;;5072611;28;20156;-79
2021/04/02 05:16:41;;;;;;;0.50;0.50;;;;;;;;;;5054707;28;20256;-79
2021/04/02 05:19:09;;;;;;;0.35;0.35;;;;;;;;;;5072603;28;20248;-79
2021/04/02 05:21:37;;;;;;;0.10;0.10;;;;;;;;;;5054793;28;20582;-78
2021/04/02 05:24:04;;;;;;;0.20;0.20;;;;;;;;;;5072497;28;20160;-78
2021/04/02 05:26:30;;;;;;;0.77;0.28;;;;;;;;;;5072335;28;20197;-78
2021/04/02 05:28:56;;;;;;;0.82;0.82;;;;;;;;;;5072283;28;20156;-79
2021/04/02 05:31:22;;;;;;;4.80;0.80;;;;;;;;;;5072463;28;20264;-79
2021/04/02 05:33:51;;;;;;;1.85;1.20;;;;;;;;;;5072443;28;20198;-78
2021/04/02 05:36:17;;;;;;;0.10;0.10;;;;;;;;;;5072246;28;20211;-78
2021/04/02 05:38:43;;;;;;;0.50;0.50;;;;;;;;;;5072055;28;20184;-78
2021/04/02 05:41:13;;;;;;;0.30;0.30;;;;;;;;;;5072218;28;20192;-78
2021/04/02 05:43:59;;;;;;;1.42;0.57;;;;;;;;;;5054161;28;20574;-79
2021/04/02 05:46:26;;;;;;;0.40;0.35;;;;;;;;;;5071953;28;20197;-79
2021/04/02 05:49:00;;;;;;;0.38;0.38;;;;;;;;;;5054197;28;20165;-77
2021/04/02 05:51:27;;;;;;;0.10;0.10;;;;;;;;;;5054007;28;20243;-78
2021/04/02 05:53:56;;;;;;;0.43;0.43;;;;;;;;;;5054286;28;20165;-78
2021/04/02 05:56:22;;;;;;;0.50;0.50;;;;;;;;;;5071798;28;20184;-79
2021/04/02 05:58:50;;;;;;;0.10;0.10;;;;;;;;;;5071924;28;20172;-79
2021/04/02 06:01:16;;;;;;;0.35;0.32;;;;;;;;;;5071675;28;20211;-79
2021/04/02 06:03:43;;;;;;;0.63;0.63;;;;;;;;;;5071830;28;20161;-79
2021/04/02 06:06:13;;;;;;;0.75;0.65;;;;;;;;;;5053956;28;20161;-78
2021/04/02 06:08:44;;;;;;;0.98;0.95;;;;;;;;;;5053069;28;20160;-79
2021/04/02 06:11:11;;;;;;;0.10;0.10;;;;;;;;;;5071894;28;20168;-78
2021/04/02 06:13:38;;;;;;;2.97;0.77;;;;;;;;;;5053626;28;20160;-78
2021/04/02 06:16:05;;;;;;;0.30;0.30;;;;;;;;;;5071325;28;20222;-79
2021/04/02 06:18:36;;;;;;;0.30;0.30;;;;;;;;;;5071563;28;20169;-78
2021/04/02 06:21:03;;;;;;;0.30;0.30;;;;;;;;;;5071604;28;20184;-77
2021/04/02 06:23:30;;;;;;;1.20;1.10;;;;;;;;;;5071522;28;20179;-79
2021/04/02 06:26:04;;;;;;;1.63;1.52;;;;;;;;;;5071346;28;20156;-78
2021/04/02 06:28:31;;;;;;;0.40;0.20;;;;;;;;;;5046416;28;20182;-77
2021/04/02 06:30:59;;;;;;;0.10;0.10;;;;;;;;;;5071147;28;20179;-76
2021/04/02 06:33:42;;;;;;;0.30;0.30;;;;;;;;;;5053256;28;20252;-78
2021/04/02 06:36:11;;;;;;;0.35;0.35;;;;;;;;;;5070883;28;22166;-77
2021/04/02 06:38:40;;;;;;;1.55;0.47;;;;;;;;;;5070838;28;20165;-77
2021/04/02 06:41:06;;;;;;;0.10;0.10;;;;;;;;;;5052848;28;20228;-77
2021/04/02 06:43:46;;;;;;;0.43;0.32;;;;;;;;;;5052441;28;20165;-76
2021/04/02 06:46:18;;;;;;;0.95;0.75;;;;;;;;;;5059094;28;20169;-77
2021/04/02 06:48:44;;;;;;;0.10;0.10;;;;;;;;;;5040924;28;20166;-77
2021/04/02 06:51:14;;;;;;;0.30;0.30;;;;;;;;;;5069276;28;20274;-76
2021/04/02 06:53:41;;;;;;;1.00;0.95;;;;;;;;;;5066625;28;20200;-76
2021/04/02 06:56:07;;;;;;;0.10;0.10;;;;;;;;;;5070477;28;20188;-77
2021/04/02 06:58:34;;;;;;;8.98;1.20;;;;;;;;;;5070386;28;20165;-77
2021/04/02 07:01:03;;;;;;;3.78;0.63;;;;;;;;;;5066997;28;20188;-76
2021/04/02 07:03:31;;;;;;;0.45;0.45;;;;;;;;;;5068386;28;20185;-78
2021/04/02 07:05:57;;;;;;;18.63;1.63;;;;;;;;;;5069795;28;20195;-78
2021/04/02 07:08:24;;;;;;;4.93;0.77;;;;;;;;;;5044383;28;20166;-76
2021/04/02 07:10:51;;;;;;;3.58;0.75;;;;;;;;;;5069895;28;20169;-77
2021/04/02 07:13:17;;;;;;;2.92;0.65;;;;;;;;;;5069981;28;20179;-77
2021/04/02 07:15:44;;;;;;;0.20;0.20;;;;;;;;;;5051975;28;20177;-77
2021/04/02 07:18:12;;;;;;;0.30;0.28;;;;;;;;;;5070052;28;20165;-80
2021/04/02 07:20:38;;;;;;;0.00;0.00;;;;;;;;;;5070055;28;20624;-76
2021/04/02 07:23:05;;;;;;;1.75;1.65;;;;;;;;;;5052313;28;20161;-78
2021/04/02 07:25:32;;;;;;;0.52;0.50;;;;;;;;;;5052125;28;20288;-77
2021/04/02 07:27:58;;;;;;;0.75;0.75;;;;;;;;;;5069576;28;20162;-75
2021/04/02 07:30:26;;;;;;;6.65;1.50;;;;;;;;;;5048869;28;20176;-77
2021/04/02 07:32:53;;;;;;;0.38;0.35;;;;;;;;;;5069879;28;20171;-77
2021/04/02 07:35:21;;;;;;;1.00;1.00;;;;;;;;;;5069805;28;20227;-77
2021/04/02 07:37:51;;;;;;;0.43;0.30;;;;;;;;;;5051721;28;20169;-78
2021/04/02 07:40:20;;;;;;;0.20;0.20;;;;;;;;;;5069718;28;20199;-76
2021/04/02 07:42:53;;;;;;;0.60;0.60;;;;;;;;;;5069545;28;20161;-76
2021/04/02 07:45:21;;;;;;;0.15;0.15;;;;;;;;;;5069420;28;20334;-77
2021/04/02 07:47:51;;;;;;;0.30;0.30;;;;;;;;;;5068318;28;20223;-78
2021/04/02 07:50:28;;;;;;;0.70;0.70;;;;;;;;;;5051017;28;20232;-78
2021/04/02 07:52:55;;;;;;;2.40;0.65;;;;;;;;;;5051651;28;20691;-79
2021/04/02 07:55:22;;;;;;;0.50;0.50;;;;;;;;;;5069101;28;20192;-79
2021/04/02 07:57:51;;;;;;;0.00;0.00;;;;;;;;;;5051538;28;20247;-79
2021/04/02 08:00:17;;;;;;;0.55;0.55;;;;;;;;;;5051341;28;20185;-79
2021/04/02 08:02:44;;;;;;;2.22;1.67;;;;;;;;;;5069401;28;20157;-79
2021/04/02 08:05:17;;;;;;;1.95;0.77;;;;;;;;;;5051193;28;20199;-77
2021/04/02 08:07:44;;;;;;;0.75;0.20;;;;;;;;;;5051166;28;20156;-78
2021/04/02 08:10:14;;;;;;;2.40;1.30;;;;;;;;;;5050742;28;20203;-78
2021/04/02 08:12:41;;;;;;;1.95;1.50;;;;;;;;;;5051156;28;20168;-78
2021/04/02 08:15:08;;;;;;;0.00;0.00;;;;;;;;;;5069032;28;20214;-79
2021/04/02 08:17:35;;;;;;;0.52;0.52;;;;;;;;;;5068916;28;20171;-78
2021/04/02 08:20:04;;;;;;;0.55;0.38;;;;;;;;;;5068989;28;20330;-76
2021/04/02 08:22:30;;;;;;;0.65;0.65;;;;;;;;;;5067581;28;20156;-79
2021/04/02 08:24:59;;;;;;;0.22;0.22;;;;;;;;;;5049613;28;20208;-77
2021/04/02 08:27:26;;;;;;;0.60;0.60;;;;;;;;;;5046707;28;20200;-78
2021/04/02 08:30:03;;;;;;;4.75;0.82;;;;;;;;;;5030911;28;20316;-77
2021/04/02 08:32:38;;;;;;;0.57;0.52;;;;;;;;;;5048265;28;20165;-78
2021/04/02 08:35:05;;;;;;;1.10;1.00;;;;;;;;;;5048515;28;20323;-77
2021/04/02 08:37:31;;;;;;;2.13;1.98;;;;;;;;;;5080869;28;20176;-77
2021/04/02 08:39:58;;;;;;;0.20;0.13;;;;;;;;;;5088563;28;20214;-77
2021/04/02 08:42:28;;;;;;;0.25;0.25;;;;;;;;;;5070592;28;20191;-77
2021/04/02 08:44:54;;;;;;;1.00;1.00;;;;;;;;;;5070413;28;20224;-77
2021/04/02 08:47:21;;;;;;;1.23;0.95;;;;;;;;;;5070508;28;20203;-77
2021/04/02 08:49:54;;;;;;;0.20;0.20;;;;;;;;;;5088187;28;20220;-77
2021/04/02 08:52:29;;;;;;;0.20;0.20;;;;;;;;;;5088049;28;20160;-76
2021/04/02 08:54:58;;;;;;;1.45;1.02;;;;;;;;;;5071105;28;20187;-77
2021/04/02 08:57:25;;;;;;;1.30;0.75;;;;;;;;;;5070662;28;20179;-76
2021/04/02 08:59:51;;;;;;;4.47;1.15;;;;;;;;;;5088125;28;20228;-76
2021/04/02 09:02:18;;;;;;;7.47;1.25;;;;;;;;;;5088640;28;20229;-77
2021/04/02 09:04:45;;;;;;;0.22;0.22;;;;;;;;;;5088424;28;20191;-77
2021/04/02 09:07:12;;;;;;;11.85;1.05;;;;;;;;;;5088151;28;20190;-76
2021/04/02 09:09:42;;;;;;;1.08;0.73;;;;;;;;;;5088239;28;20153;-78
2021/04/02 09:12:10;;;;;;;6.13;1.75;;;;;;;;;;5088520;28;20156;-75
2021/04/02 09:14:42;;;;;;;12.95;0.38;;;;;;;;;;5088065;28;20215;-77
2021/04/02 09:17:10;;;;;;;0.98;0.73;;;;;;;;;;5088650;28;20203;-81
2021/04/02 09:19:37;;;;;;;0.77;0.77;;;;;;;;;;5088704;28;20207;-79
2021/04/02 09:22:03;;;;;;;1.13;0.47;;;;;;;;;;5088582;28;20243;-79
2021/04/02 09:24:33;;;;;;;1.55;0.85;;;;;;;;;;5069964;28;20191;-78
2021/04/02 09:27:06;;;;;;;1.92;0.77;;;;;;;;;;5067976;28;20161;-76
2021/04/02 09:29:32;;;;;;;0.30;0.30;;;;;;;;;;5066203;28;20195;-76
2021/04/02 09:31:58;;;;;;;0.20;0.20;;;;;;;;;;5068104;28;20165;-76
2021/04/02 09:34:25;;;;;;;3.53;1.02;;;;;;;;;;5050229;28;20207;-77
2021/04/02 09:36:51;;;;;;;0.65;0.65;;;;;;;;;;5079206;28;20199;-75
2021/04/02 09:39:21;;;;;;;0.50;0.50;;;;;;;;;;5070061;28;20183;-75
2021/04/02 09:41:52;;;;;;;1.10;0.73;;;;;;;;;;5088145;28;20167;-75
2021/04/02 09:44:19;;;;;;;1.10;0.93;;;;;;;;;;5088848;28;20188;-75
2021/04/02 09:46:47;;;;;;;1.85;0.85;;;;;;;;;;5076016;28;20241;-77
2021/04/02 09:49:13;;;;;;;0.20;0.20;;;;;;;;;;5071353;28;20316;-77
2021/04/02 09:51:47;;;;;;;3.65;1.77;;;;;;;;;;5071225;28;20184;-77
2021/04/02 09:54:13;;;;;;;2.72;0.55;;;;;;;;;;5071275;28;20226;-77
2021/04/02 09:56:40;;;;;;;0.68;0.68;;;;;;;;;;5053961;28;20714;-78
2021/04/02 09:59:07;;;;;;;2.08;0.80;;;;;;;;;;5071730;28;20196;-77
2021/04/02 10:01:33;;;;;;;0.70;0.57;;;;;;;;;;5051321;28;20207;-77
2021/04/02 10:04:00;;;;;;;1.55;1.45;;;;;;;;;;5068591;28;20219;-76
2021/04/02 10:06:27;;;;;;;1.23;1.05;;;;;;;;;;5068440;28;20195;-77
2021/04/02 10:08:53;;;;;;;0.50;0.50;;;;;;;;;;5069066;28;20188;-76
2021/04/02 10:11:20;;;;;;;1.85;0.93;;;;;;;;;;5068963;28;20168;-76
2021/04/02 10:13:46;;;;;;;2.38;0.85;;;;;;;;;;5050896;28;20175;-76
2021/04/02 10:16:12;;;;;;;0.52;0.45;;;;;;;;;;5070099;28;20168;-76
2021/04/02 10:18:39;;;;;;;1.27;1.13;;;;;;;;;;5053474;28;20560;-76
2021/04/02 10:21:06;;;;;;;0.65;0.65;;;;;;;;;;5071120;28;20188;-77
2021/04/02 10:23:33;;;;;;;0.17;0.17;;;;;;;;;;5053168;28;20164;-76
2021/04/02 10:25:59;;;;;;;0.30;0.30;;;;;;;;;;5071167;28;20156;-77
2021/04/02 10:28:25;;;;;;;0.88;0.73;;;;;;;;;;5071253;28;20184;-77
2021/04/02 10:30:52;;;;;;;1.33;1.25;;;;;;;;;;5070671;28;20240;-76
2021/04/02 10:33:19;;;;;;;22.52;1.75;;;;;;;;;;5052599;28;20164;-76
2021/04/02 10:35:45;;;;;;;1.48;1.23;;;;;;;;;;5070929;28;20167;-75
2021/04/02 10:38:12;;;;;;;0.95;0.95;;;;;;;;;;5070879;28;20156;-76
2021/04/02 10:40:38;;;;;;;1.42;0.95;;;;;;;;;;5070719;28;20192;-77
2021/04/02 10:43:05;;;;;;;1.98;0.73;;;;;;;;;;5053032;28;20218;-76
2021/04/02 10:45:32;;;;;;;1.77;1.17;;;;;;;;;;5052523;28;20160;-76
2021/04/02 10:47:58;;;;;;;0.80;0.75;;;;;;;;;;5052536;28;20164;-76
2021/04/02 10:50:25;;;;;;;0.80;0.60;;;;;;;;;;5070458;28;20283;-75
2021/04/02 10:52:51;;;;;;;2.03;1.02;;;;;;;;;;5070533;28;20164;-76
2021/04/02 10:55:17;;;;;;;4.03;1.25;;;;;;;;;;5070298;28;20165;-77
2021/04/02 10:57:44;;;;;;;0.82;0.55;;;;;;;;;;5070173;28;20216;-77
2021/04/02 11:00:11;;;;;;;2.42;1.45;;;;;;;;;;5070018;28;20199;-76
2021/04/02 11:02:38;;;;;;;0.77;0.77;;;;;;;;;;5070199;28;20168;-77
2021/04/02 11:05:05;;;;;;;0.93;0.85;;;;;;;;;;5052419;28;20164;-77
2021/04/02 11:07:31;;;;;;;0.98;0.77;;;;;;;;;;5070443;28;20151;-77
2021/04/02 11:09:57;;;;;;;2.88;1.20;;;;;;;;;;5070217;28;20196;-78
2021/04/02 11:12:28;;;;;;;1.30;1.05;;;;;;;;;;5069668;28;20174;-77
2021/04/02 11:14:55;;;;;;;2.65;1.10;;;;;;;;;;5052009;28;20164;-77
2021/04/02 11:17:22;;;;;;;4.78;1.67;;;;;;;;;;5067227;28;20176;-77
2021/04/02 11:19:49;;;;;;;1.05;0.95;;;;;;;;;;5051828;28;20206;-77
2021/04/02 11:22:15;;;;;;;1.50;1.05;;;;;;;;;;5069793;28;20247;-76
2021/04/02 11:24:42;;;;;;;1.17;1.13;;;;;;;;;;5070031;28;20160;-77
2021/04/02 11:27:08;;;;;;;1.88;1.42;;;;;;;;;;5069708;28;20173;-77
2021/04/02 11:29:35;;;;;;;0.80;0.80;;;;;;;;;;5052484;28;20235;-79
2021/04/02 11:32:02;;;;;;;0.93;0.93;;;;;;;;;;5052325;28;20221;-79
2021/04/02 11:34:31;;;;;;;1.15;1.02;;;;;;;;;;5068425;28;20168;-80
2021/04/02 11:36:57;;;;;;;9.20;1.77;;;;;;;;;;5069050;28;20617;-79
2021/04/02 11:39:23;;;;;;;1.25;1.05;;;;;;;;;;5051588;28;20164;-79
2021/04/02 11:41:49;;;;;;;1.67;1.30;;;;;;;;;;5069710;28;20228;-79
2021/04/02 11:44:15;;;;;;;1.40;1.30;;;;;;;;;;5052002;28;20191;-78
2021/04/02 11:46:41;;;;;;;1.08;0.98;;;;;;;;;;5051811;28;20169;-80
2021/04/02 11:49:07;;;;;;;0.70;0.70;;;;;;;;;;5051180;28;20202;-79
2021/04/02 11:51:34;;;;;;;1.48;1.23;;;;;;;;;;5069415;28;20203;-79
2021/04/02 11:54:00;;;;;;;0.65;0.47;;;;;;;;;;5050523;28;20187;-79
2021/04/02 11:56:27;;;;;;;0.93;0.93;;;;;;;;;;5069255;28;20191;-79
2021/04/02 11:58:54;;;;;;;1.63;1.52;;;;;;;;;;5064365;28;20192;-77
2021/04/02 12:01:21;;;;;;;3.42;1.63;;;;;;;;;;5049297;28;20211;-76
2021/04/02 12:03:48;;;;;;;0.22;0.20;;;;;;;;;;5050676;28;20234;-77
2021/04/02 12:06:14;;;;;;;1.50;0.77;;;;;;;;;;5064951;28;20188;-76
2021/04/02 12:08:40;;;;;;;2.38;1.30;;;;;;;;;;5067568;28;20188;-77
2021/04/02 12:11:06;;;;;;;1.23;1.13;;;;;;;;;;5050912;28;20199;-76
2021/04/02 12:13:32;;;;;;;1.48;1.17;;;;;;;;;;5068588;28;20172;-77
2021/04/02 12:15:59;;;;;;;1.42;1.33;;;;;;;;;;5063294;28;20168;-77
2021/04/02 12:18:25;;;;;;;3.20;2.00;;;;;;;;;;5072710;28;20202;-77
2021/04/02 12:20:51;;;;;;;6.70;0.90;;;;;;;;;;5074722;28;20216;-77
2021/04/02 12:23:18;;;;;;;2.22;1.52;;;;;;;;;;5050728;28;20172;-77
2021/04/02 12:25:44;;;;;;;0.90;0.90;;;;;;;;;;5050600;28;20176;-77
2021/04/02 12:28:10;;;;;;;2.83;1.33;;;;;;;;;;5068359;28;20227;-78
2021/04/02 12:30:37;;;;;;;1.08;0.93;;;;;;;;;;5068399;28;20187;-78
2021/04/02 12:33:03;;;;;;;1.45;1.33;;;;;;;;;;5069006;28;20161;-77
2021/04/02 12:35:29;;;;;;;1.00;0.95;;;;;;;;;;5051043;28;20195;-77
2021/04/02 12:37:55;;;;;;;2.60;2.42;;;;;;;;;;5068720;28;20256;-76
2021/04/02 12:40:23;;;;;;;2.97;2.78;;;;;;;;;;5068829;28;20195;-76
2021/04/02 12:42:50;;;;;;;4.40;1.50;;;;;;;;;;5068861;28;20191;-76
2021/04/02 12:45:16;;;;;;;1.92;1.80;;;;;;;;;;5050870;28;20177;-76
2021/04/02 12:47:43;;;;;;;3.60;2.38;;;;;;;;;;5050820;28;20197;-77
2021/04/02 12:50:10;;;;;;;0.75;0.75;;;;;;;;;;5040423;28;20224;-76
2021/04/02 12:52:36;;;;;;;4.72;2.90;;;;;;;;;;5031108;28;20272;-77
2021/04/02 12:55:03;;;;;;;2.92;2.65;;;;;;;;;;5035456;28;20180;-76
2021/04/02 12:57:29;;;;;;;2.80;2.45;;;;;;;;;;5038933;28;20210;-77
2021/04/02 12:59:55;;;;;;;3.45;1.27;;;;;;;;;;5058407;28;20185;-77
2021/04/02 13:02:21;;;;;;;3.42;2.58;;;;;;;;;;5032502;28;20173;-77
2021/04/02 13:04:47;;;;;;;6.38;2.85;;;;;;;;;;5030419;28;20200;-70
2021/04/02 13:07:14;;;;;;;6.57;3.10;;;;;;;;;;5057247;28;20180;-77
2021/04/02 13:09:40;;;;;;;6.50;2.10;;;;;;;;;;5038640;28;20174;-77
2021/04/02 13:12:07;;;;;;;4.32;2.47;;;;;;;;;;5028765;28;20191;-77
2021/04/02 13:14:33;;;;;;;2.15;2.05;;;;;;;;;;5038459;28;20208;-77
2021/04/02 13:16:59;;;;;;;3.05;1.38;;;;;;;;;;5067625;28;20260;-77
2021/04/02 13:19:25;;;;;;;4.57;3.22;;;;;;;;;;5070794;28;20580;-76
2021/04/02 13:21:52;;;;;;;2.53;2.33;;;;;;;;;;5053864;28;20172;-76
2021/04/02 13:24:18;;;;;;;4.03;3.00;;;;;;;;;;5053944;28;20193;-78
2021/04/02 13:26:44;;;;;;;16.90;1.38;;;;;;;;;;5054501;28;20169;-78
2021/04/02 13:29:10;;;;;;;12.02;4.15;;;;;;;;;;5072263;28;20221;-78
2021/04/02 13:31:36;;;;;;;3.80;2.13;;;;;;;;;;5054246;28;20181;-78
2021/04/02 13:34:02;;;;;;;1.95;0.90;;;;;;;;;;5054589;28;20181;-76
2021/04/02 13:36:29;;;;;;;2.63;2.40;;;;;;;;;;5054454;28;20176;-78
2021/04/02 13:38:55;;;;;;;5.28;4.28;;;;;;;;;;5072436;28;20160;-78
2021/04/02 13:41:21;;;;;;;4.00;3.20;;;;;;;;;;5071941;28;20196;-76
2021/04/02 13:43:48;;;;;;;2.72;2.53;;;;;;;;;;5071761;28;20161;-75
2021/04/02 13:46:14;;;;;;;3.58;3.35;;;;;;;;;;5054067;28;20189;-77
2021/04/02 13:48:40;;;;;;;2.75;1.83;;;;;;;;;;5071999;28;20167;-77
2021/04/02 13:51:07;;;;;;;2.55;2.08;;;;;;;;;;5090057;28;20339;-76
2021/04/02 13:53:33;;;;;;;5.07;2.30;;;;;;;;;;5074030;28;20176;-76
2021/04/02 13:55:59;;;;;;;3.10;2.13;;;;;;;;;;5073457;28;20200;-77
2021/04/02 13:58:25;;;;;;;2.00;1.85;;;;;;;;;;5090939;28;20183;-73
2021/04/02 14:00:52;;;;;;;5.97;1.75;;;;;;;;;;5057101;28;20216;-76
2021/04/02 14:03:19;;;;;;;2.72;2.05;;;;;;;;;;5073255;28;20171;-75
2021/04/02 14:05:45;;;;;;;4.05;2.75;;;;;;;;;;5091379;28;20222;-77
2021/04/02 14:08:11;;;;;;;7.50;2.20;;;;;;;;;;5077989;28;20177;-73
2021/04/02 14:10:38;;;;;;;3.58;3.28;;;;;;;;;;5053187;28;20176;-76
2021/04/02 14:13:05;;;;;;;4.53;3.15;;;;;;;;;;5071467;28;20171;-76
2021/04/02 14:15:31;;;;;;;1.70;1.08;;;;;;;;;;5070973;28;20242;-77
2021/04/02 14:17:59;;;;;;;7.38;2.53;;;;;;;;;;5053516;28;20289;-76
2021/04/02 14:20:27;;;;;;;1.88;1.65;;;;;;;;;;5053213;28;20201;-76
2021/04/02 14:22:53;;;;;;;3.00;2.47;;;;;;;;;;5071210;28;20161;-75
2021/04/02 14:25:20;;;;;;;3.47;3.22;;;;;;;;;;5071060;28;20189;-75
2021/04/02 14:27:46;;;;;;;2.10;1.90;;;;;;;;;;5053137;28;20219;-74
2021/04/02 14:30:17;;;;;;;9.43;4.78;;;;;;;;;;5052207;28;20192;-75
2021/04/02 14:32:44;;;;;;;2.13;1.95;;;;;;;;;;5071167;28;20671;-75
2021/04/02 14:35:10;;;;;;;2.47;2.28;;;;;;;;;;5070683;28;20192;-76
2021/04/02 14:37:37;;;;;;;2.83;2.40;;;;;;;;;;5071111;28;20153;-75
2021/04/02 14:40:05;;;;;;;4.25;3.90;;;;;;;;;;5070949;28;20189;-76
2021/04/02 14:42:31;;;;;;;2.35;1.85;;;;;;;;;;5070689;28;20572;-76
2021/04/02 14:44:57;;;;;;;3.35;3.10;;;;;;;;;;5070667;28;20219;-76